Terminal Aerodrome Forecast
Issued by NWS

Home | Current Version | Previous Version | Graphics & Text | Print | Product List | Glossary On
Versions: 1 2 3 4 5 6 7 8 9 10 11 12
000
FTUS45 KGGW 132320
TAFSDY
TAF
KSDY 132320Z 1400/1424 VRB05KT P6SM SCT090
     FM141000 27006KT P6SM BKN080 WS020/31035KT
     FM142000 34011KT P6SM BKN060=

USA.gov is the U.S. government's official web portal to all federal, state and local government web resources and services.